Niamey, Niger
Current Conditions -  °F | °C
As of 12:00 AM on Wednesday 28 Jan 2015 (Local Time) from DRRN Reporting Station
Clear Clear  
Wind Chill: 72°   Ceiling: Unl
Heat Index: 72°   Visibility: 6mi
Dew Point: 16°   Wind: 6mph
Humidity: 12%   Direction: 10°N
Pressure: 29.94"   Gusts: NA
Location:  13.52°N, 2.12°E
Report Text: DRRN 272300Z 01005KT CAVOK 22/M09 Q1014 NOSIG
Loading
Personal Weather Stations






























Interactive Weather Map New forecast layout! Learn more

10-Day Weather Forecast

Advertisements
Track Severe Weather on mobile